Time;durP1;ratioP1;P1;durP2;ratioP2;P2;SDS_P1;SDS_P2;PMS_P1;PMS_P2;Temp;Humidity;BMP_temperature;BMP_pressure;BME280_temperature;BME280_humidity;BME280_pressure;Samples;Min_cycle;Max_cycle;Signal;HPM_P1;HPM_P2
2023/10/19 00:03:55;;;;;;;13.90;7.93;;;;;;;5.28;68.08;96707.91;10400540;28;20478;-70
2023/10/19 00:09:17;;;;;;;15.90;7.53;;;;;;;5.44;67.98;96688.97;10393058;28;20056;-72
2023/10/19 00:14:37;;;;;;;16.77;7.53;;;;;;;5.63;67.72;96683.38;10408941;28;20068;-71
2023/10/19 00:25:41;;;;;;;12.95;6.95;;;;;;;5.87;67.29;96684.31;10415917;28;20041;-72
2023/10/19 00:31:08;;;;;;;11.98;6.80;;;;;;;5.89;67.31;96692.78;10411123;28;20192;-71
2023/10/19 00:36:30;;;;;;;11.55;7.40;;;;;;;5.97;67.53;96687.78;10421858;28;20049;-71
2023/10/19 00:41:56;;;;;;;13.68;6.88;;;;;;;6.05;67.25;96681.34;10407249;28;20046;-71
2023/10/19 00:47:23;;;;;;;11.55;6.38;;;;;;;6.10;67.44;96674.78;10380735;28;20449;-71
2023/10/19 00:52:49;;;;;;;12.05;6.22;;;;;;;6.13;67.29;96670.81;10394436;28;20490;-71
2023/10/19 00:58:17;;;;;;;13.60;6.28;;;;;;;6.23;67.22;96663.19;10421480;28;20045;-71
2023/10/19 01:03:39;;;;;;;11.73;6.45;;;;;;;6.30;66.84;96648.41;10380938;28;20515;-72
2023/10/19 01:09:01;;;;;;;11.48;6.30;;;;;;;6.28;66.80;96640.69;10405981;28;20060;-71
2023/10/19 01:14:27;;;;;;;11.43;6.70;;;;;;;6.28;66.72;96642.75;10405883;28;20041;-74
2023/10/19 01:19:49;;;;;;;11.05;6.75;;;;;;;6.37;66.75;96635.66;10378813;28;20442;-72
2023/10/19 01:25:10;;;;;;;11.13;6.10;;;;;;;6.41;66.38;96622.09;10405313;28;20508;-72
2023/10/19 01:30:33;;;;;;;12.40;7.03;;;;;;;6.56;66.94;96622.44;10404704;28;20092;-71
2023/10/19 01:41:45;;;;;;;12.93;7.45;;;;;;;6.65;66.18;96636.78;10383902;28;20064;-71
2023/10/19 01:47:06;;;;;;;15.07;7.40;;;;;;;6.74;66.23;96636.72;10404557;28;20050;-71
2023/10/19 01:52:27;;;;;;;10.35;6.72;;;;;;;6.86;66.23;96639.56;10404678;28;20037;-71
2023/10/19 01:57:48;;;;;;;12.48;6.65;;;;;;;7.01;65.77;96618.97;10403928;28;20041;-71
2023/10/19 02:03:09;;;;;;;12.90;6.88;;;;;;;7.00;65.63;96603.66;10389838;28;20076;-71
2023/10/19 02:08:30;;;;;;;11.77;7.05;;;;;;;7.01;65.42;96605.09;10403336;28;20095;-71
2023/10/19 02:13:55;;;;;;;14.60;6.88;;;;;;;6.97;65.13;96588.22;10403703;28;20471;-71
2023/10/19 02:19:16;;;;;;;9.70;6.18;;;;;;;6.86;64.90;96568.16;10403518;28;20392;-71
2023/10/19 02:24:38;;;;;;;12.88;7.50;;;;;;;6.74;64.70;96536.16;10403060;28;20400;-71
2023/10/19 02:30:01;;;;;;;11.18;6.90;;;;;;;6.44;64.28;96507.97;10402894;28;20510;-71
2023/10/19 02:35:22;;;;;;;12.27;6.65;;;;;;;6.26;64.54;96476.31;10402432;28;20041;-71
2023/10/19 02:40:46;;;;;;;15.88;8.68;;;;;;;5.97;65.53;96446.81;10402647;28;20041;-71
2023/10/19 02:46:07;;;;;;;10.55;6.90;;;;;;;5.84;66.05;96499.22;10402289;28;20049;-72
2023/10/19 02:51:28;;;;;;;12.75;7.10;;;;;;;6.09;66.50;96501.56;10402010;28;20041;-72
2023/10/19 02:56:58;;;;;;;12.85;6.88;;;;;;;6.33;66.08;96494.78;10388019;28;20037;-71
2023/10/19 03:02:20;;;;;;;12.10;7.10;;;;;;;6.51;65.83;96479.31;10389227;28;20068;-71
2023/10/19 03:07:43;;;;;;;12.05;7.35;;;;;;;6.53;65.80;96482.19;10402032;28;20069;-71
2023/10/19 03:13:05;;;;;;;10.93;6.83;;;;;;;6.58;65.98;96472.09;10375012;28;20057;-71
2023/10/19 03:18:28;;;;;;;14.05;7.32;;;;;;;6.58;65.51;96444.38;10387486;28;20041;-72
2023/10/19 03:23:49;;;;;;;16.63;7.63;;;;;;;6.50;65.58;96443.88;10374164;28;20094;-71
2023/10/19 03:29:15;;;;;;;11.10;7.18;;;;;;;6.44;66.11;96430.34;10401319;28;20045;-71
2023/10/19 03:34:37;;;;;;;11.98;7.28;;;;;;;6.45;65.89;96420.72;10400655;28;20041;-71
2023/10/19 03:40:05;;;;;;;11.57;7.17;;;;;;;6.34;65.89;96415.13;10387371;28;20049;-71
2023/10/19 03:45:27;;;;;;;14.18;7.45;;;;;;;6.34;66.39;96404.06;10409636;28;20037;-71
2023/10/19 03:50:51;;;;;;;14.23;7.43;;;;;;;6.24;66.43;96399.34;10423708;28;20052;-71
2023/10/19 03:56:13;;;;;;;9.82;6.95;;;;;;;6.18;67.07;96393.44;10422640;28;20042;-71
2023/10/19 04:01:34;;;;;;;11.98;7.57;;;;;;;6.15;67.25;96394.59;10408578;28;20388;-71
2023/10/19 04:06:59;;;;;;;11.02;7.45;;;;;;;6.21;68.01;96399.81;10408323;28;20373;-71
2023/10/19 04:12:22;;;;;;;15.80;8.75;;;;;;;6.22;68.89;96393.66;10381572;28;20042;-71
2023/10/19 04:17:47;;;;;;;12.85;8.32;;;;;;;6.33;68.61;96386.69;10381073;28;20041;-72
2023/10/19 04:23:14;;;;;;;14.65;9.13;;;;;;;6.37;70.02;96384.19;10408527;28;20120;-71
2023/10/19 04:28:41;;;;;;;14.73;8.20;;;;;;;6.49;69.63;96381.44;10408774;28;20439;-71
2023/10/19 04:34:09;;;;;;;12.02;7.80;;;;;;;6.59;69.90;96391.09;10395060;28;20038;-71
2023/10/19 04:39:31;;;;;;;13.65;8.38;;;;;;;6.72;69.94;96372.41;10422019;28;20080;-70
2023/10/19 04:44:54;;;;;;;16.83;7.93;;;;;;;6.75;69.22;96363.59;10393507;28;20088;-73
2023/10/19 04:50:16;;;;;;;12.52;8.10;;;;;;;6.74;69.20;96358.66;10393981;28;20044;-71
2023/10/19 04:55:37;;;;;;;12.57;8.48;;;;;;;6.60;68.89;96353.00;10420471;28;20042;-71
2023/10/19 05:00:58;;;;;;;12.30;7.85;;;;;;;6.69;69.24;96357.00;10406970;28;20088;-71
2023/10/19 05:06:21;;;;;;;13.90;8.50;;;;;;;6.67;70.22;96340.22;10406160;28;20057;-71
2023/10/19 05:11:43;;;;;;;13.93;8.88;;;;;;;6.69;71.14;96337.56;10390169;28;20060;-71
2023/10/19 05:17:05;;;;;;;14.20;8.55;;;;;;;6.68;70.56;96350.72;10392840;28;20067;-71
2023/10/19 05:22:29;;;;;;;14.07;8.98;;;;;;;6.73;70.35;96340.56;10392901;28;20065;-72
2023/10/19 05:27:51;;;;;;;12.85;8.40;;;;;;;6.66;71.17;96342.28;10408527;28;20046;-71
2023/10/19 05:33:12;;;;;;;11.85;8.60;;;;;;;6.67;70.89;96346.50;10405446;28;20052;-71
2023/10/19 05:38:33;;;;;;;13.18;8.52;;;;;;;6.73;71.18;96330.22;10419859;28;20124;-71
2023/10/19 05:43:54;;;;;;;14.95;9.05;;;;;;;6.82;70.67;96317.53;10391672;28;20117;-72
2023/10/19 05:49:16;;;;;;;14.15;9.10;;;;;;;6.83;71.23;96319.72;10377514;28;20052;-73
2023/10/19 05:54:38;;;;;;;17.75;9.23;;;;;;;6.91;71.57;96311.16;10420556;28;20056;-72
2023/10/19 05:59:59;;;;;;;15.93;9.30;;;;;;;6.96;71.50;96303.78;10415248;28;20049;-72
2023/10/19 06:05:20;;;;;;;21.00;11.35;;;;;;;6.93;71.76;96305.72;10409089;28;20419;-71
2023/10/19 06:10:42;;;;;;;21.42;11.75;;;;;;;6.93;71.90;96308.47;10390370;28;20053;-70
2023/10/19 06:16:03;;;;;;;14.93;10.55;;;;;;;7.00;71.23;96307.53;10403470;28;20069;-72
2023/10/19 06:21:24;;;;;;;14.85;10.63;;;;;;;7.01;71.46;96297.88;10376374;28;20046;-71
2023/10/19 06:26:45;;;;;;;19.33;10.93;;;;;;;7.15;71.44;96295.91;10403114;28;20491;-71
2023/10/19 06:32:07;;;;;;;19.92;11.77;;;;;;;7.19;71.48;96298.19;10389481;28;20049;-71
2023/10/19 06:37:28;;;;;;;18.63;10.88;;;;;;;7.34;72.43;96303.22;10402669;28;20042;-71
2023/10/19 06:42:49;;;;;;;15.98;10.70;;;;;;;7.39;71.82;96310.44;10388588;28;20043;-71
2023/10/19 06:48:11;;;;;;;19.10;11.25;;;;;;;7.59;71.86;96333.06;10388823;28;20049;-72
2023/10/19 06:53:32;;;;;;;19.23;12.80;;;;;;;7.80;71.44;96334.19;10374795;28;20041;-71
2023/10/19 06:58:54;;;;;;;18.30;11.30;;;;;;;7.79;71.51;96318.88;10388547;28;20499;-71
2023/10/19 07:04:16;;;;;;;16.67;11.10;;;;;;;7.90;71.62;96316.03;10401554;28;20057;-71
2023/10/19 07:09:37;;;;;;;19.88;10.45;;;;;;;7.96;71.24;96307.31;10374327;28;20049;-71
2023/10/19 07:15:00;;;;;;;18.85;11.95;;;;;;;8.08;71.31;96310.75;10387840;28;20606;-71
2023/10/19 07:20:35;;;;;;;16.27;11.07;;;;;;;8.28;71.91;96311.81;10384624;28;20049;-71
2023/10/19 07:25:59;;;;;;;19.20;11.40;;;;;;;8.36;70.91;96308.06;10389322;28;20049;-72
2023/10/19 07:31:21;;;;;;;;;;;;;;;8.44;71.01;96286.25;10375092;28;20532;-71
2023/10/19 07:36:43;;;;;;;16.27;11.02;;;;;;;8.51;71.48;96268.53;10414677;28;19944;-71
2023/10/19 07:42:06;;;;;;;18.52;11.40;;;;;;;8.57;71.06;96266.78;10401550;28;20084;-71
2023/10/19 07:47:28;;;;;;;16.52;10.65;;;;;;;8.51;71.63;96302.63;10387356;28;20056;-71
2023/10/19 07:52:53;;;;;;;15.02;10.65;;;;;;;8.72;71.33;96292.56;10387092;28;20045;-72
2023/10/19 07:58:14;;;;;;;15.10;10.63;;;;;;;8.68;71.38;96295.13;10400485;28;20046;-72
2023/10/19 08:03:35;;;;;;;15.98;10.85;;;;;;;8.62;70.90;96295.53;10414861;28;20508;-71
2023/10/19 08:08:57;;;;;;;18.42;10.77;;;;;;;8.74;71.83;96301.00;10386440;28;20046;-71
2023/10/19 08:14:19;;;;;;;16.08;10.95;;;;;;;8.95;71.31;96292.34;10400251;28;20069;-71
2023/10/19 08:19:41;;;;;;;18.50;12.48;;;;;;;9.07;70.97;96286.66;10414646;28;20042;-72
2023/10/19 08:25:03;;;;;;;15.32;11.32;;;;;;;9.31;70.99;96264.88;10414793;28;20041;-71
2023/10/19 08:30:24;;;;;;;15.80;10.80;;;;;;;9.50;70.14;96264.41;10392487;28;20100;-71
2023/10/19 08:35:48;;;;;;;17.90;12.10;;;;;;;9.71;70.23;96274.44;10407439;28;20052;-71
2023/10/19 08:41:09;;;;;;;20.83;12.23;;;;;;;9.61;68.94;96263.53;10407104;28;20160;-71
2023/10/19 08:46:30;;;;;;;19.15;13.38;;;;;;;9.60;69.05;96255.81;10393113;28;20052;-71
2023/10/19 08:51:51;;;;;;;19.70;12.60;;;;;;;9.50;68.60;96256.03;10393284;28;20087;-71
2023/10/19 08:57:12;;;;;;;15.82;12.20;;;;;;;9.13;68.66;96239.63;10379002;28;20096;-72
2023/10/19 09:02:35;;;;;;;16.48;12.00;;;;;;;9.14;69.83;96252.94;10392745;28;20049;-71
2023/10/19 09:07:56;;;;;;;17.02;11.75;;;;;;;9.37;69.78;96263.09;10392658;28;20049;-71
2023/10/19 09:13:22;;;;;;;19.25;13.60;;;;;;;9.69;69.05;96258.34;10392137;28;20052;-71
2023/10/19 09:18:47;;;;;;;22.00;13.27;;;;;;;9.70;68.82;96265.34;10406409;28;20069;-70
2023/10/19 09:24:09;;;;;;;18.33;11.32;;;;;;;9.91;68.56;96249.56;10406139;28;20072;-71
2023/10/19 09:29:33;;;;;;;20.58;12.38;;;;;;;10.25;67.91;96236.50;10392218;28;20100;-71
2023/10/19 09:34:55;;;;;;;21.73;13.73;;;;;;;10.55;67.65;96237.84;10392484;28;20072;-71
2023/10/19 09:40:16;;;;;;;18.67;13.05;;;;;;;11.93;65.91;96244.84;10403948;28;20076;-71
2023/10/19 09:45:37;;;;;;;18.88;13.38;;;;;;;13.17;64.91;96243.66;10390976;28;20064;-71
2023/10/19 09:50:58;;;;;;;20.20;13.35;;;;;;;13.40;62.92;96239.53;10390664;28;20045;-71
2023/10/19 09:56:21;;;;;;;18.80;12.00;;;;;;;14.28;61.95;96240.13;10404095;28;20068;-70
2023/10/19 10:02:07;;;;;;;17.92;12.88;;;;;;;17.53;58.40;96234.91;10390453;28;20045;-71
2023/10/19 10:07:28;;;;;;;15.70;10.85;;;;;;;23.23;40.52;96218.88;10418137;28;20049;-71
2023/10/19 10:13:24;;;;;;;13.57;9.73;;;;;;;25.04;33.06;96227.88;10418129;28;20112;-72
2023/10/19 10:18:49;;;;;;;12.63;9.93;;;;;;;22.64;34.14;96212.75;10417840;28;20069;-71
2023/10/19 10:24:10;;;;;;;12.25;9.10;;;;;;;23.63;34.76;96215.03;10389344;28;20069;-71
2023/10/19 10:29:31;;;;;;;11.40;8.93;;;;;;;24.91;30.90;96206.63;10388897;28;20065;-71
2023/10/19 10:34:52;;;;;;;16.70;9.93;;;;;;;23.30;30.83;96191.06;10388604;28;20590;-71
2023/10/19 10:40:15;;;;;;;12.48;9.38;;;;;;;23.52;31.18;96210.84;10388351;28;20470;-72
2023/10/19 10:45:36;;;;;;;13.55;9.55;;;;;;;26.47;31.03;96192.72;10416817;28;20037;-72
2023/10/19 10:50:57;;;;;;;11.70;9.27;;;;;;;29.30;26.27;96184.97;10401621;28;20547;-71
2023/10/19 10:56:23;;;;;;;12.35;9.52;;;;;;;27.32;24.59;96178.06;10401816;28;20407;-71
2023/10/19 11:01:44;;;;;;;12.77;9.95;;;;;;;23.94;27.04;96155.69;10387556;28;20048;-71
2023/10/19 11:07:05;;;;;;;14.73;10.50;;;;;;;21.05;30.14;96161.78;10401287;28;20125;-71
2023/10/19 11:12:25;;;;;;;15.63;10.50;;;;;;;18.88;34.14;96151.31;10400988;28;20113;-69
2023/10/19 11:17:47;;;;;;;14.57;11.02;;;;;;;17.13;37.92;96151.06;10387110;28;20124;-69
2023/10/19 11:23:08;;;;;;;15.85;12.13;;;;;;;16.84;38.49;96130.84;10401007;28;20224;-71
2023/10/19 11:28:29;;;;;;;14.93;11.93;;;;;;;15.89;40.49;96132.53;10386794;28;20446;-71
2023/10/19 11:33:51;;;;;;;17.45;11.68;;;;;;;15.79;42.18;96128.78;10400915;28;20514;-70
2023/10/19 11:39:12;;;;;;;18.42;11.68;;;;;;;16.76;41.60;96121.53;10400149;28;20065;-72
2023/10/19 11:44:33;;;;;;;17.08;12.65;;;;;;;18.35;38.48;96118.94;10400255;28;20519;-72
2023/10/19 11:49:54;;;;;;;18.27;12.73;;;;;;;17.31;40.15;96123.16;10400435;28;20049;-71
2023/10/19 11:55:15;;;;;;;16.48;12.15;;;;;;;18.03;40.24;96113.59;10414985;28;20072;-70
2023/10/19 12:00:37;;;;;;;17.77;12.88;;;;;;;18.19;40.51;96119.47;10386420;28;20065;-70
2023/10/19 12:05:58;;;;;;;17.27;12.05;;;;;;;18.97;40.34;96109.69;10406832;28;20092;-70
2023/10/19 12:11:19;;;;;;;18.63;13.32;;;;;;;19.46;37.70;96110.06;10408127;28;20113;-70
2023/10/19 12:16:41;;;;;;;20.08;12.38;;;;;;;18.16;39.04;96103.91;10422384;28;20038;-70
2023/10/19 12:22:05;;;;;;;18.33;12.90;;;;;;;17.13;40.10;96108.78;10407614;28;20073;-70
2023/10/19 12:27:25;;;;;;;17.50;12.48;;;;;;;16.66;41.30;96101.63;10407662;28;20125;-70
2023/10/19 12:32:49;;;;;;;17.55;12.20;;;;;;;16.88;42.50;96099.91;10406909;28;20065;-70
2023/10/19 12:38:16;;;;;;;18.52;12.93;;;;;;;18.09;41.61;96101.69;10421667;28;20065;-71
2023/10/19 12:43:37;;;;;;;18.00;13.20;;;;;;;18.17;40.89;96098.97;10394189;28;20068;-71
2023/10/19 12:48:58;;;;;;;20.58;13.50;;;;;;;17.40;41.15;96104.97;10406459;28;20041;-70
2023/10/19 12:54:19;;;;;;;18.67;13.18;;;;;;;16.65;42.10;96097.38;10406208;28;20065;-73
2023/10/19 12:59:40;;;;;;;19.55;13.15;;;;;;;16.16;43.27;96090.84;10420728;28;20170;-70
2023/10/19 13:05:01;;;;;;;21.73;14.20;;;;;;;16.03;44.38;96075.84;10420706;28;20053;-70
2023/10/19 13:10:21;;;;;;;18.65;13.20;;;;;;;15.32;46.05;96054.63;10420761;28;20077;-70
2023/10/19 13:15:44;;;;;;;21.63;14.65;;;;;;;14.64;48.12;96043.19;10391308;28;20068;-70
2023/10/19 13:21:05;;;;;;;24.07;14.57;;;;;;;14.70;48.71;96023.69;10378579;28;20042;-70
2023/10/19 13:26:26;;;;;;;19.73;14.10;;;;;;;14.34;48.90;96029.81;10405692;28;20076;-70
2023/10/19 13:31:49;;;;;;;22.02;14.23;;;;;;;13.88;51.56;96027.19;10391623;28;20121;-71
2023/10/19 13:37:11;;;;;;;;;;;;;;;13.80;51.10;96018.59;10405248;28;20130;-71
2023/10/19 13:42:34;;;;;;;21.73;14.88;;;;;;;13.31;52.02;96019.97;10391160;28;20390;-70
2023/10/19 13:47:55;;;;;;;18.50;14.05;;;;;;;12.98;53.18;96028.78;10391451;28;20056;-70
2023/10/19 13:53:16;;;;;;;24.90;14.07;;;;;;;12.84;54.08;96015.78;10404431;28;20103;-71
2023/10/19 13:58:37;;;;;;;17.75;12.30;;;;;;;12.92;54.37;96017.38;10404033;28;20045;-74
2023/10/19 14:03:58;;;;;;;22.45;14.82;;;;;;;12.78;54.40;96023.25;10403865;28;20049;-71
2023/10/19 14:09:19;;;;;;;20.67;14.95;;;;;;;12.55;55.49;96025.34;10389803;28;20080;-70
2023/10/19 14:14:40;;;;;;;21.45;14.95;;;;;;;12.53;55.54;96024.56;10418316;28;20119;-71
2023/10/19 14:20:01;;;;;;;22.17;15.52;;;;;;;12.61;55.96;96027.63;10389830;28;20488;-71
2023/10/19 14:25:22;;;;;;;21.17;13.98;;;;;;;12.74;55.92;96023.13;10389075;28;20045;-70
2023/10/19 14:30:43;;;;;;;24.63;15.38;;;;;;;12.61;56.25;96008.75;10403003;28;20121;-70
2023/10/19 14:36:04;;;;;;;21.20;14.88;;;;;;;12.53;56.13;96004.97;10375205;28;20196;-70
2023/10/19 14:41:25;;;;;;;23.60;15.35;;;;;;;12.44;56.71;96003.28;10417540;28;20048;-72
2023/10/19 14:46:47;;;;;;;27.10;18.63;;;;;;;12.27;56.84;95994.38;10416968;28;20077;-70
2023/10/19 14:52:08;;;;;;;25.17;16.83;;;;;;;12.03;58.30;95985.16;10402296;28;20042;-70
2023/10/19 14:57:29;;;;;;;20.23;15.05;;;;;;;12.01;59.08;95966.22;10402015;28;20506;-71
2023/10/19 15:02:50;;;;;;;30.38;17.10;;;;;;;11.85;58.84;95956.56;10401772;28;20398;-71
2023/10/19 15:08:11;;;;;;;24.05;16.67;;;;;;;11.70;59.82;95956.06;10401821;28;20086;-70
2023/10/19 15:13:32;;;;;;;26.33;17.50;;;;;;;11.74;62.76;95963.88;10387376;28;20045;-70
2023/10/19 15:18:53;;;;;;;26.98;17.27;;;;;;;11.79;60.68;95993.41;10387681;28;20124;-69
2023/10/19 15:24:16;;;;;;;22.95;15.50;;;;;;;11.90;62.08;95944.19;10400948;28;20104;-70
2023/10/19 15:29:36;;;;;;;28.17;19.08;;;;;;;11.73;61.25;95971.53;10387013;28;20068;-70
2023/10/19 15:34:57;;;;;;;32.70;20.83;;;;;;;11.54;62.02;95955.50;10373707;28;20046;-70
2023/10/19 15:40:19;;;;;;;27.83;19.75;;;;;;;11.38;63.42;95952.13;10386322;28;20069;-69
2023/10/19 15:45:41;;;;;;;29.55;19.13;;;;;;;11.31;64.02;95954.00;10400847;28;20114;-69
2023/10/19 15:51:02;;;;;;;29.00;18.60;;;;;;;11.28;65.78;95955.28;10386820;28;20490;-72
2023/10/19 15:56:26;;;;;;;27.95;18.30;;;;;;;11.37;64.74;95947.91;10386765;28;20487;-69
2023/10/19 16:01:47;;;;;;;27.50;19.45;;;;;;;11.36;66.52;95963.22;10414796;28;20069;-70
2023/10/19 16:07:09;;;;;;;30.50;20.33;;;;;;;11.31;65.83;95958.88;10414911;28;20060;-70
2023/10/19 16:12:30;;;;;;;27.92;20.05;;;;;;;11.34;66.77;95952.72;10386680;28;20113;-70
2023/10/19 16:17:51;;;;;;;27.50;19.45;;;;;;;11.36;67.67;95955.56;10386218;28;20120;-70
2023/10/19 16:23:12;;;;;;;31.70;20.30;;;;;;;11.37;66.32;95959.06;10400027;28;20476;-70
2023/10/19 16:28:34;;;;;;;29.83;20.70;;;;;;;11.38;68.17;95968.88;10414569;28;20487;-71
2023/10/19 16:33:55;;;;;;;29.83;19.70;;;;;;;11.39;67.78;95971.06;10386087;28;20096;-70
2023/10/19 16:39:16;;;;;;;28.52;19.63;;;;;;;11.50;67.91;95974.94;10399475;28;20069;-71
2023/10/19 16:44:37;;;;;;;28.63;20.33;;;;;;;11.52;67.38;95969.41;10385957;28;20096;-70
2023/10/19 16:49:58;;;;;;;32.38;21.75;;;;;;;11.42;68.63;95953.00;10389605;28;20096;-70
2023/10/19 16:55:19;;;;;;;31.58;21.30;;;;;;;11.32;69.63;95932.38;10392821;28;20072;-69
2023/10/19 17:00:43;;;;;;;29.33;20.80;;;;;;;11.17;70.24;95940.22;10421715;28;20101;-70
2023/10/19 17:06:04;;;;;;;31.13;21.10;;;;;;;11.13;71.51;95942.16;10398768;28;20054;-79
2023/10/19 17:11:26;;;;;;;34.10;22.70;;;;;;;11.02;70.49;95943.88;10395527;28;20045;-70
2023/10/19 17:16:47;;;;;;;34.42;22.15;;;;;;;11.01;70.92;95922.91;10392303;28;20042;-71
2023/10/19 17:22:09;;;;;;;35.53;26.05;;;;;;;10.89;71.92;95930.81;10378518;28;20042;-70
2023/10/19 17:27:30;;;;;;;34.08;24.05;;;;;;;10.80;70.66;95926.28;10420310;28;20056;-70
2023/10/19 17:32:52;;;;;;;36.80;25.55;;;;;;;10.81;74.54;95942.41;10391522;28;20100;-70
2023/10/19 17:38:17;;;;;;;36.80;24.08;;;;;;;10.80;73.38;95937.44;10419859;28;20053;-70
2023/10/19 17:43:38;;;;;;;39.67;26.10;;;;;;;10.76;76.88;95937.31;10391104;28;20080;-70
2023/10/19 17:48:59;;;;;;;35.35;23.83;;;;;;;10.78;74.87;95937.38;10404661;28;20052;-71
2023/10/19 17:54:20;;;;;;;37.70;24.00;;;;;;;10.84;74.48;95935.53;10419012;28;20399;-70
2023/10/19 17:59:42;;;;;;;35.03;23.73;;;;;;;10.96;73.25;95932.47;10389958;28;20046;-70
2023/10/19 18:05:04;;;;;;;35.75;25.42;;;;;;;10.92;73.63;95906.50;10418554;28;20064;-72
2023/10/19 18:10:28;;;;;;;34.60;24.38;;;;;;;10.90;74.67;95926.66;10377629;28;20045;-70
2023/10/19 18:15:51;;;;;;;39.88;25.25;;;;;;;11.01;74.65;95920.13;10390129;28;20096;-70
2023/10/19 18:21:47;;;;;;;40.38;25.58;;;;;;;10.98;73.58;95899.03;10403546;28;20045;-71
2023/10/19 18:27:15;;;;;;;38.47;26.17;;;;;;;10.80;76.28;95885.13;10417658;28;20045;-70
2023/10/19 18:32:40;;;;;;;43.70;28.13;;;;;;;10.62;78.77;95880.97;10403390;28;20488;-70
2023/10/19 18:38:02;;;;;;;41.00;27.05;;;;;;;10.51;78.04;95877.78;10375705;28;20069;-70
2023/10/19 18:43:24;;;;;;;40.67;28.77;;;;;;;10.45;80.19;95877.56;10402356;28;20108;-73
2023/10/19 18:48:45;;;;;;;38.72;25.73;;;;;;;10.48;78.81;95887.44;10402531;28;20384;-73
2023/10/19 18:54:07;;;;;;;37.95;25.80;;;;;;;10.47;78.11;95886.00;10388485;28;20068;-70
2023/10/19 18:59:29;;;;;;;38.90;26.63;;;;;;;10.40;79.49;95875.97;10374527;28;20049;-69
2023/10/19 19:04:51;;;;;;;;;;;;;;;10.31;79.80;95888.88;10416612;28;20392;-70
2023/10/19 19:10:12;;;;;;;42.40;28.15;;;;;;;10.31;79.93;95883.31;10401659;28;19971;-70
2023/10/19 19:15:35;;;;;;;38.85;25.30;;;;;;;10.31;79.49;95868.66;10397424;28;20115;-70
2023/10/19 19:20:57;;;;;;;38.20;25.92;;;;;;;10.39;81.89;95860.59;10387683;28;20046;-72
2023/10/19 19:26:19;;;;;;;35.78;25.15;;;;;;;10.36;80.80;95867.47;10401240;28;20087;-71
2023/10/19 19:31:40;;;;;;;37.15;25.85;;;;;;;10.42;80.10;95861.38;10415585;28;20056;-70
2023/10/19 19:37:01;;;;;;;39.40;24.90;;;;;;;10.50;80.26;95840.09;10400982;28;20052;-70
2023/10/19 19:42:26;;;;;;;37.42;26.00;;;;;;;10.54;81.92;95840.25;10415246;28;20065;-70
2023/10/19 19:47:57;;;;;;;35.40;25.80;;;;;;;10.51;81.85;95827.56;10389478;28;20072;-70
2023/10/19 19:53:19;;;;;;;40.08;28.15;;;;;;;10.49;81.34;95846.31;10387267;28;20065;-70
2023/10/19 19:58:40;;;;;;;36.08;25.20;;;;;;;10.43;80.50;95832.88;10400144;28;20139;-72
2023/10/19 20:04:02;;;;;;;37.97;26.83;;;;;;;10.36;80.97;95827.69;10415023;28;20396;-70
2023/10/19 20:09:25;;;;;;;40.20;28.02;;;;;;;10.25;80.68;95805.00;10399950;28;20065;-71
2023/10/19 20:14:46;;;;;;;41.08;26.30;;;;;;;10.18;82.61;95808.19;10400165;28;20117;-70
2023/10/19 20:20:11;;;;;;;44.35;27.75;;;;;;;10.16;82.19;95808.09;10414512;28;20080;-71
2023/10/19 20:25:33;;;;;;;45.00;28.40;;;;;;;10.08;82.62;95810.59;10404933;28;20492;-70
2023/10/19 20:30:54;;;;;;;41.95;28.67;;;;;;;10.06;82.48;95802.16;10408084;28;20057;-70
2023/10/19 20:36:15;;;;;;;39.53;27.38;;;;;;;10.12;83.43;95780.06;10407368;28;20056;-70
2023/10/19 20:41:40;;;;;;;44.22;29.25;;;;;;;10.14;84.91;95775.28;10422533;28;20121;-70
2023/10/19 20:47:03;;;;;;;45.45;29.73;;;;;;;10.15;86.25;95785.09;10394316;28;20044;-70
2023/10/19 20:52:25;;;;;;;41.08;27.33;;;;;;;10.17;85.44;95781.66;10407126;28;20480;-70
2023/10/19 20:57:49;;;;;;;39.60;27.00;;;;;;;10.21;84.83;95779.00;10421305;28;20065;-70
2023/10/19 21:03:12;;;;;;;36.53;26.48;;;;;;;10.27;84.87;95771.63;10392739;28;20081;-70
2023/10/19 21:08:33;;;;;;;38.13;26.17;;;;;;;10.40;84.86;95758.13;10406516;28;20484;-70
2023/10/19 21:13:57;;;;;;;37.40;26.13;;;;;;;10.41;84.29;95745.59;10392117;28;20453;-71
2023/10/19 21:19:20;;;;;;;45.70;28.70;;;;;;;10.25;83.76;95715.78;10406120;28;20072;-70
2023/10/19 21:24:56;;;;;;;43.10;28.52;;;;;;;10.17;83.97;95725.91;10396356;28;20061;-70
2023/10/19 21:30:17;;;;;;;40.95;27.55;;;;;;;10.17;84.97;95725.91;10405490;28;20391;-70
2023/10/19 21:35:39;;;;;;;39.78;29.15;;;;;;;10.19;84.85;95718.31;10377051;28;20045;-70
2023/10/19 21:41:00;;;;;;;43.28;29.63;;;;;;;10.19;84.74;95720.38;10404958;28;20118;-70
2023/10/19 21:46:21;;;;;;;39.65;28.63;;;;;;;10.14;85.56;95719.53;10377399;28;20527;-70
2023/10/19 21:51:45;;;;;;;39.17;27.58;;;;;;;10.21;85.19;95734.41;10404400;28;20054;-70
2023/10/19 21:57:08;;;;;;;39.78;26.60;;;;;;;10.20;85.53;95722.53;10404829;28;20033;-70
2023/10/19 22:02:30;;;;;;;40.90;27.15;;;;;;;10.27;85.53;95717.94;10390638;28;20080;-70
2023/10/19 22:07:51;;;;;;;38.90;26.73;;;;;;;10.30;85.76;95691.53;10418514;28;20111;-70
2023/10/19 22:13:13;;;;;;;42.47;29.15;;;;;;;10.30;85.22;95697.13;10418824;28;20052;-70
2023/10/19 22:18:34;;;;;;;39.13;27.98;;;;;;;10.26;85.57;95705.34;10389840;28;20037;-70
2023/10/19 22:23:55;;;;;;;37.92;26.65;;;;;;;10.34;85.36;95696.56;10389546;28;20045;-70
2023/10/19 22:29:15;;;;;;;39.70;27.25;;;;;;;10.31;85.44;95709.69;10389811;28;20399;-71
2023/10/19 22:34:38;;;;;;;45.78;29.40;;;;;;;10.31;84.71;95701.34;10405758;28;20448;-73
2023/10/19 22:39:59;;;;;;;39.08;26.30;;;;;;;10.30;85.77;95699.91;10411813;28;20049;-70
2023/10/19 22:45:20;;;;;;;42.85;27.67;;;;;;;10.37;85.81;95693.19;10405745;28;20045;-70
2023/10/19 22:50:41;;;;;;;42.28;28.55;;;;;;;10.36;85.70;95671.53;10388597;28;20045;-69
2023/10/19 22:56:01;;;;;;;39.83;26.63;;;;;;;10.34;85.70;95674.97;10402140;28;20050;-70
2023/10/19 23:01:22;;;;;;;38.38;26.73;;;;;;;10.38;85.41;95680.66;10416725;28;20033;-70
2023/10/19 23:06:43;;;;;;;37.05;24.58;;;;;;;10.38;85.60;95699.47;10401520;28;20054;-70
2023/10/19 23:12:08;;;;;;;36.38;26.05;;;;;;;10.48;85.65;95688.69;10387753;28;20057;-71
2023/10/19 23:17:30;;;;;;;36.70;24.67;;;;;;;10.45;85.39;95673.97;10402107;28;20487;-69
2023/10/19 23:22:51;;;;;;;42.42;27.10;;;;;;;10.46;85.31;95663.50;10387770;28;20451;-71
2023/10/19 23:28:14;;;;;;;39.40;26.48;;;;;;;10.36;85.63;95647.13;10387428;28;20104;-70
2023/10/19 23:33:35;;;;;;;42.03;27.85;;;;;;;10.35;84.87;95633.84;10401170;28;20407;-70
2023/10/19 23:38:55;;;;;;;45.67;30.45;;;;;;;10.18;84.72;95643.69;10386939;28;20041;-70
2023/10/19 23:44:17;;;;;;;48.00;31.60;;;;;;;10.09;85.89;95639.88;10386906;28;20041;-71
2023/10/19 23:49:37;;;;;;;45.72;31.10;;;;;;;10.08;85.12;95637.75;10386768;28;20049;-70
2023/10/19 23:54:58;;;;;;;46.42;30.60;;;;;;;10.09;85.13;95622.47;10400580;28;20045;-70
